sensor_id;sensor_type;location;lat;lon;timestamp;temperature;humidity
22544;DHT22;11438;52.044;8.716;2022-11-03T00:01:47;13.80;87.30
22544;DHT22;11438;52.044;8.716;2022-11-03T00:04:14;13.80;87.50
22544;DHT22;11438;52.044;8.716;2022-11-03T00:06:42;13.80;87.40
22544;DHT22;11438;52.044;8.716;2022-11-03T00:09:09;13.80;87.50
22544;DHT22;11438;52.044;8.716;2022-11-03T00:11:37;13.80;87.60
22544;DHT22;11438;52.044;8.716;2022-11-03T00:14:04;13.80;87.60
22544;DHT22;11438;52.044;8.716;2022-11-03T00:16:30;13.80;87.70
22544;DHT22;11438;52.044;8.716;2022-11-03T00:18:55;13.90;87.80
22544;DHT22;11438;52.044;8.716;2022-11-03T00:21:21;13.90;87.80
22544;DHT22;11438;52.044;8.716;2022-11-03T00:23:47;13.90;87.80
22544;DHT22;11438;52.044;8.716;2022-11-03T00:26:20;13.90;87.80
22544;DHT22;11438;52.044;8.716;2022-11-03T00:28:48;13.90;87.80
22544;DHT22;11438;52.044;8.716;2022-11-03T00:31:26;13.90;87.80
22544;DHT22;11438;52.044;8.716;2022-11-03T00:33:53;14.00;87.90
22544;DHT22;11438;52.044;8.716;2022-11-03T00:36:20;14.00;87.90
22544;DHT22;11438;52.044;8.716;2022-11-03T00:38:46;14.00;87.90
22544;DHT22;11438;52.044;8.716;2022-11-03T00:41:13;14.00;88.10
22544;DHT22;11438;52.044;8.716;2022-11-03T00:43:39;14.10;88.10
22544;DHT22;11438;52.044;8.716;2022-11-03T00:46:06;14.00;88.10
22544;DHT22;11438;52.044;8.716;2022-11-03T00:48:33;14.00;88.10
22544;DHT22;11438;52.044;8.716;2022-11-03T00:51:05;14.00;88.10
22544;DHT22;11438;52.044;8.716;2022-11-03T00:53:33;14.00;88.20
22544;DHT22;11438;52.044;8.716;2022-11-03T00:56:00;14.10;88.30
22544;DHT22;11438;52.044;8.716;2022-11-03T00:58:26;14.00;88.30
22544;DHT22;11438;52.044;8.716;2022-11-03T01:01:06;14.10;88.40
22544;DHT22;11438;52.044;8.716;2022-11-03T01:03:36;14.00;88.50
22544;DHT22;11438;52.044;8.716;2022-11-03T01:06:05;14.10;88.60
22544;DHT22;11438;52.044;8.716;2022-11-03T01:08:49;14.10;88.60
22544;DHT22;11438;52.044;8.716;2022-11-03T01:11:17;14.10;88.60
22544;DHT22;11438;52.044;8.716;2022-11-03T01:14:02;14.00;88.50
22544;DHT22;11438;52.044;8.716;2022-11-03T01:16:29;14.10;88.70
22544;DHT22;11438;52.044;8.716;2022-11-03T01:18:55;14.00;88.60
22544;DHT22;11438;52.044;8.716;2022-11-03T01:21:21;14.00;88.70
22544;DHT22;11438;52.044;8.716;2022-11-03T01:23:48;14.00;88.70
22544;DHT22;11438;52.044;8.716;2022-11-03T01:26:14;14.00;88.70
22544;DHT22;11438;52.044;8.716;2022-11-03T01:28:42;14.00;88.70
22544;DHT22;11438;52.044;8.716;2022-11-03T01:31:17;14.00;88.70
22544;DHT22;11438;52.044;8.716;2022-11-03T01:33:43;14.00;88.70
22544;DHT22;11438;52.044;8.716;2022-11-03T01:36:13;14.00;88.50
22544;DHT22;11438;52.044;8.716;2022-11-03T01:38:39;14.00;88.60
22544;DHT22;11438;52.044;8.716;2022-11-03T01:41:07;13.90;88.50
22544;DHT22;11438;52.044;8.716;2022-11-03T01:43:33;13.90;88.60
22544;DHT22;11438;52.044;8.716;2022-11-03T01:46:03;13.90;88.60
22544;DHT22;11438;52.044;8.716;2022-11-03T01:48:32;13.90;89.40
22544;DHT22;11438;52.044;8.716;2022-11-03T01:50:59;13.80;88.60
22544;DHT22;11438;52.044;8.716;2022-11-03T01:53:26;13.80;88.60
22544;DHT22;11438;52.044;8.716;2022-11-03T01:55:53;13.70;88.70
22544;DHT22;11438;52.044;8.716;2022-11-03T01:58:28;13.70;88.80
22544;DHT22;11438;52.044;8.716;2022-11-03T02:00:56;13.60;88.70
22544;DHT22;11438;52.044;8.716;2022-11-03T02:03:26;13.60;88.80
22544;DHT22;11438;52.044;8.716;2022-11-03T02:05:53;13.60;88.80
22544;DHT22;11438;52.044;8.716;2022-11-03T02:08:31;13.50;88.80
22544;DHT22;11438;52.044;8.716;2022-11-03T02:10:59;13.50;89.00
22544;DHT22;11438;52.044;8.716;2022-11-03T02:13:44;13.50;89.10
22544;DHT22;11438;52.044;8.716;2022-11-03T02:16:10;13.40;89.20
22544;DHT22;11438;52.044;8.716;2022-11-03T02:18:35;13.40;89.30
22544;DHT22;11438;52.044;8.716;2022-11-03T02:21:25;13.30;89.40
22544;DHT22;11438;52.044;8.716;2022-11-03T02:24:07;13.20;89.60
22544;DHT22;11438;52.044;8.716;2022-11-03T02:26:34;13.20;90.00
22544;DHT22;11438;52.044;8.716;2022-11-03T02:29:00;13.20;90.10
22544;DHT22;11438;52.044;8.716;2022-11-03T02:31:35;13.20;90.30
22544;DHT22;11438;52.044;8.716;2022-11-03T02:34:15;13.10;90.50
22544;DHT22;11438;52.044;8.716;2022-11-03T02:36:50;13.10;90.60
22544;DHT22;11438;52.044;8.716;2022-11-03T02:39:45;13.20;90.80
22544;DHT22;11438;52.044;8.716;2022-11-03T02:42:13;13.10;90.90
22544;DHT22;11438;52.044;8.716;2022-11-03T02:44:41;13.10;90.90
22544;DHT22;11438;52.044;8.716;2022-11-03T02:47:10;13.20;91.10
22544;DHT22;11438;52.044;8.716;2022-11-03T02:49:48;13.20;91.10
22544;DHT22;11438;52.044;8.716;2022-11-03T02:52:41;13.20;91.10
22544;DHT22;11438;52.044;8.716;2022-11-03T02:57:53;13.20;91.30
22544;DHT22;11438;52.044;8.716;2022-11-03T03:00:21;13.30;91.30
22544;DHT22;11438;52.044;8.716;2022-11-03T03:05:20;13.30;91.40
22544;DHT22;11438;52.044;8.716;2022-11-03T03:07:50;13.40;91.40
22544;DHT22;11438;52.044;8.716;2022-11-03T03:10:20;13.40;91.40
22544;DHT22;11438;52.044;8.716;2022-11-03T03:12:48;13.40;91.40
22544;DHT22;11438;52.044;8.716;2022-11-03T03:15:15;13.50;91.40
22544;DHT22;11438;52.044;8.716;2022-11-03T03:17:48;13.40;91.40
22544;DHT22;11438;52.044;8.716;2022-11-03T03:20:31;13.50;91.50
22544;DHT22;11438;52.044;8.716;2022-11-03T03:23:20;13.50;91.50
22544;DHT22;11438;52.044;8.716;2022-11-03T03:26:12;13.50;91.50
22544;DHT22;11438;52.044;8.716;2022-11-03T03:28:54;13.50;91.50
22544;DHT22;11438;52.044;8.716;2022-11-03T03:31:21;13.60;91.50
22544;DHT22;11438;52.044;8.716;2022-11-03T03:33:49;13.60;91.50
22544;DHT22;11438;52.044;8.716;2022-11-03T03:36:17;13.60;91.60
22544;DHT22;11438;52.044;8.716;2022-11-03T03:38:48;13.60;91.60
22544;DHT22;11438;52.044;8.716;2022-11-03T03:41:16;13.60;91.60
22544;DHT22;11438;52.044;8.716;2022-11-03T03:43:48;13.60;91.60
22544;DHT22;11438;52.044;8.716;2022-11-03T03:46:16;13.60;91.60
22544;DHT22;11438;52.044;8.716;2022-11-03T03:48:42;13.60;91.60
22544;DHT22;11438;52.044;8.716;2022-11-03T03:51:09;13.70;91.70
22544;DHT22;11438;52.044;8.716;2022-11-03T03:53:36;13.70;91.70
22544;DHT22;11438;52.044;8.716;2022-11-03T03:56:01;13.70;91.70
22544;DHT22;11438;52.044;8.716;2022-11-03T03:58:30;13.70;91.70
22544;DHT22;11438;52.044;8.716;2022-11-03T04:00:55;13.70;91.70
22544;DHT22;11438;52.044;8.716;2022-11-03T04:03:23;13.70;91.70
22544;DHT22;11438;52.044;8.716;2022-11-03T04:05:50;13.80;91.80
22544;DHT22;11438;52.044;8.716;2022-11-03T04:08:16;13.70;91.80
22544;DHT22;11438;52.044;8.716;2022-11-03T04:10:42;13.80;91.80
22544;DHT22;11438;52.044;8.716;2022-11-03T04:13:31;13.70;91.80
22544;DHT22;11438;52.044;8.716;2022-11-03T04:16:16;13.80;91.80
22544;DHT22;11438;52.044;8.716;2022-11-03T04:19:01;13.80;91.80
22544;DHT22;11438;52.044;8.716;2022-11-03T04:21:45;13.80;91.90
22544;DHT22;11438;52.044;8.716;2022-11-03T04:24:29;13.80;91.80
22544;DHT22;11438;52.044;8.716;2022-11-03T04:27:08;13.90;91.90
22544;DHT22;11438;52.044;8.716;2022-11-03T04:29:36;13.80;91.90
22544;DHT22;11438;52.044;8.716;2022-11-03T04:32:11;13.80;91.90
22544;DHT22;11438;52.044;8.716;2022-11-03T04:34:38;13.80;92.00
22544;DHT22;11438;52.044;8.716;2022-11-03T04:37:09;13.80;91.90
22544;DHT22;11438;52.044;8.716;2022-11-03T04:39:36;13.70;92.00
22544;DHT22;11438;52.044;8.716;2022-11-03T04:42:03;13.80;92.00
22544;DHT22;11438;52.044;8.716;2022-11-03T04:44:29;13.70;92.00
22544;DHT22;11438;52.044;8.716;2022-11-03T04:46:55;13.80;92.10
22544;DHT22;11438;52.044;8.716;2022-11-03T04:49:21;13.70;92.10
22544;DHT22;11438;52.044;8.716;2022-11-03T04:51:48;13.70;92.20
22544;DHT22;11438;52.044;8.716;2022-11-03T04:54:22;13.80;92.30
22544;DHT22;11438;52.044;8.716;2022-11-03T04:56:47;13.70;92.30
22544;DHT22;11438;52.044;8.716;2022-11-03T04:59:15;13.80;92.30
22544;DHT22;11438;52.044;8.716;2022-11-03T05:01:42;13.70;92.30
22544;DHT22;11438;52.044;8.716;2022-11-03T05:04:13;13.70;92.30
22544;DHT22;11438;52.044;8.716;2022-11-03T05:06:40;13.80;92.30
22544;DHT22;11438;52.044;8.716;2022-11-03T05:09:14;13.70;92.30
22544;DHT22;11438;52.044;8.716;2022-11-03T05:11:45;13.80;92.40
22544;DHT22;11438;52.044;8.716;2022-11-03T05:14:25;13.80;92.40
22544;DHT22;11438;52.044;8.716;2022-11-03T05:16:52;13.70;92.40
22544;DHT22;11438;52.044;8.716;2022-11-03T05:19:29;13.70;92.40
22544;DHT22;11438;52.044;8.716;2022-11-03T05:21:57;13.70;92.50
22544;DHT22;11438;52.044;8.716;2022-11-03T05:24:24;13.70;92.50
22544;DHT22;11438;52.044;8.716;2022-11-03T05:26:52;13.70;92.40
22544;DHT22;11438;52.044;8.716;2022-11-03T05:29:21;13.70;92.40
22544;DHT22;11438;52.044;8.716;2022-11-03T05:31:50;13.80;92.50
22544;DHT22;11438;52.044;8.716;2022-11-03T05:37:41;13.70;92.60
22544;DHT22;11438;52.044;8.716;2022-11-03T05:39:44;13.80;92.60
22544;DHT22;11438;52.044;8.716;2022-11-03T05:44:50;13.80;92.60
22544;DHT22;11438;52.044;8.716;2022-11-03T05:47:25;13.80;92.50
22544;DHT22;11438;52.044;8.716;2022-11-03T05:49:58;13.80;92.60
22544;DHT22;11438;52.044;8.716;2022-11-03T05:52:26;13.80;92.60
22544;DHT22;11438;52.044;8.716;2022-11-03T05:54:57;13.80;92.90
22544;DHT22;11438;52.044;8.716;2022-11-03T05:57:24;13.80;92.60
22544;DHT22;11438;52.044;8.716;2022-11-03T05:59:52;13.80;92.90
22544;DHT22;11438;52.044;8.716;2022-11-03T06:04:53;13.80;92.50
22544;DHT22;11438;52.044;8.716;2022-11-03T06:07:29;13.80;92.50
22544;DHT22;11438;52.044;8.716;2022-11-03T06:09:56;13.70;92.50
22544;DHT22;11438;52.044;8.716;2022-11-03T06:12:23;13.80;92.50
22544;DHT22;11438;52.044;8.716;2022-11-03T06:14:50;13.70;92.40
22544;DHT22;11438;52.044;8.716;2022-11-03T06:17:21;13.80;92.40
22544;DHT22;11438;52.044;8.716;2022-11-03T06:19:49;13.70;92.40
22544;DHT22;11438;52.044;8.716;2022-11-03T06:22:29;13.80;92.40
22544;DHT22;11438;52.044;8.716;2022-11-03T06:25:09;13.70;92.50
22544;DHT22;11438;52.044;8.716;2022-11-03T06:27:37;13.70;92.50
22544;DHT22;11438;52.044;8.716;2022-11-03T06:30:23;13.70;92.60
22544;DHT22;11438;52.044;8.716;2022-11-03T06:32:49;13.70;92.60
22544;DHT22;11438;52.044;8.716;2022-11-03T06:35:15;13.70;92.50
22544;DHT22;11438;52.044;8.716;2022-11-03T06:37:42;13.70;92.60
22544;DHT22;11438;52.044;8.716;2022-11-03T06:42:39;13.70;92.70
22544;DHT22;11438;52.044;8.716;2022-11-03T06:45:17;13.70;92.60
22544;DHT22;11438;52.044;8.716;2022-11-03T06:47:43;13.70;92.60
22544;DHT22;11438;52.044;8.716;2022-11-03T06:52:49;13.60;92.50
22544;DHT22;11438;52.044;8.716;2022-11-03T06:55:36;13.60;92.50
22544;DHT22;11438;52.044;8.716;2022-11-03T07:00:46;13.60;92.50
22544;DHT22;11438;52.044;8.716;2022-11-03T07:03:29;13.60;92.50
22544;DHT22;11438;52.044;8.716;2022-11-03T07:06:04;13.60;92.70
22544;DHT22;11438;52.044;8.716;2022-11-03T07:08:45;13.60;92.80
22544;DHT22;11438;52.044;8.716;2022-11-03T07:11:20;13.60;92.80
22544;DHT22;11438;52.044;8.716;2022-11-03T07:13:47;13.60;92.90
22544;DHT22;11438;52.044;8.716;2022-11-03T07:16:26;13.60;92.90
22544;DHT22;11438;52.044;8.716;2022-11-03T07:18:53;13.60;92.90
22544;DHT22;11438;52.044;8.716;2022-11-03T07:23:59;13.60;93.10
22544;DHT22;11438;52.044;8.716;2022-11-03T07:26:26;13.70;93.10
22544;DHT22;11438;52.044;8.716;2022-11-03T07:28:52;13.70;93.10
22544;DHT22;11438;52.044;8.716;2022-11-03T07:31:21;13.70;93.10
22544;DHT22;11438;52.044;8.716;2022-11-03T07:33:47;13.70;93.00
22544;DHT22;11438;52.044;8.716;2022-11-03T07:36:23;13.70;93.00
22544;DHT22;11438;52.044;8.716;2022-11-03T07:38:52;13.70;93.00
22544;DHT22;11438;52.044;8.716;2022-11-03T07:41:20;13.80;93.00
22544;DHT22;11438;52.044;8.716;2022-11-03T07:43:55;13.80;92.90
22544;DHT22;11438;52.044;8.716;2022-11-03T07:46:22;13.90;92.90
22544;DHT22;11438;52.044;8.716;2022-11-03T07:48:54;13.90;92.90
22544;DHT22;11438;52.044;8.716;2022-11-03T07:51:24;14.00;93.00
22544;DHT22;11438;52.044;8.716;2022-11-03T08:01:37;14.10;92.80
22544;DHT22;11438;52.044;8.716;2022-11-03T08:04:11;14.10;92.80
22544;DHT22;11438;52.044;8.716;2022-11-03T08:06:37;14.10;92.80
22544;DHT22;11438;52.044;8.716;2022-11-03T08:09:03;14.10;92.70
22544;DHT22;11438;52.044;8.716;2022-11-03T08:11:28;14.20;92.80
22544;DHT22;11438;52.044;8.716;2022-11-03T08:13:54;14.20;92.70
22544;DHT22;11438;52.044;8.716;2022-11-03T08:16:20;14.20;92.80
22544;DHT22;11438;52.044;8.716;2022-11-03T08:18:45;14.20;92.70
22544;DHT22;11438;52.044;8.716;2022-11-03T08:21:12;14.30;92.80
22544;DHT22;11438;52.044;8.716;2022-11-03T08:23:38;14.30;92.80
22544;DHT22;11438;52.044;8.716;2022-11-03T08:26:03;14.30;92.80
22544;DHT22;11438;52.044;8.716;2022-11-03T08:28:29;14.30;92.80
22544;DHT22;11438;52.044;8.716;2022-11-03T08:30:55;14.30;92.90
22544;DHT22;11438;52.044;8.716;2022-11-03T08:33:26;14.30;92.80
22544;DHT22;11438;52.044;8.716;2022-11-03T08:35:52;14.40;92.90
22544;DHT22;11438;52.044;8.716;2022-11-03T08:38:18;14.40;93.00
22544;DHT22;11438;52.044;8.716;2022-11-03T08:40:43;14.40;93.00
22544;DHT22;11438;52.044;8.716;2022-11-03T08:43:09;14.50;93.00
22544;DHT22;11438;52.044;8.716;2022-11-03T08:45:34;14.50;93.00
22544;DHT22;11438;52.044;8.716;2022-11-03T08:48:00;14.50;93.10
22544;DHT22;11438;52.044;8.716;2022-11-03T08:50:25;14.60;93.20
22544;DHT22;11438;52.044;8.716;2022-11-03T08:52:51;14.60;93.20
22544;DHT22;11438;52.044;8.716;2022-11-03T08:55:16;14.60;93.10
22544;DHT22;11438;52.044;8.716;2022-11-03T08:57:42;14.70;93.10
22544;DHT22;11438;52.044;8.716;2022-11-03T09:00:08;14.70;93.10
22544;DHT22;11438;52.044;8.716;2022-11-03T09:02:34;14.70;93.10
22544;DHT22;11438;52.044;8.716;2022-11-03T09:05:00;14.80;93.10
22544;DHT22;11438;52.044;8.716;2022-11-03T09:07:25;14.80;93.00
22544;DHT22;11438;52.044;8.716;2022-11-03T09:09:51;14.90;93.00
22544;DHT22;11438;52.044;8.716;2022-11-03T09:12:16;14.90;93.00
22544;DHT22;11438;52.044;8.716;2022-11-03T09:14:42;15.00;93.00
22544;DHT22;11438;52.044;8.716;2022-11-03T09:17:07;15.00;93.00
22544;DHT22;11438;52.044;8.716;2022-11-03T09:19:33;15.10;92.90
22544;DHT22;11438;52.044;8.716;2022-11-03T09:21:59;15.10;92.90
22544;DHT22;11438;52.044;8.716;2022-11-03T09:24:25;15.10;92.90
22544;DHT22;11438;52.044;8.716;2022-11-03T09:26:51;15.20;92.90
22544;DHT22;11438;52.044;8.716;2022-11-03T09:29:16;15.20;92.90
22544;DHT22;11438;52.044;8.716;2022-11-03T09:31:42;15.30;92.80
22544;DHT22;11438;52.044;8.716;2022-11-03T09:34:07;15.30;92.80
22544;DHT22;11438;52.044;8.716;2022-11-03T09:36:33;15.30;92.90
22544;DHT22;11438;52.044;8.716;2022-11-03T09:38:58;15.40;92.90
22544;DHT22;11438;52.044;8.716;2022-11-03T09:41:24;15.50;93.00
22544;DHT22;11438;52.044;8.716;2022-11-03T09:43:50;15.50;92.90
22544;DHT22;11438;52.044;8.716;2022-11-03T09:46:16;15.60;92.70
22544;DHT22;11438;52.044;8.716;2022-11-03T09:48:43;15.60;92.60
22544;DHT22;11438;52.044;8.716;2022-11-03T09:51:10;15.70;92.40
22544;DHT22;11438;52.044;8.716;2022-11-03T09:53:38;15.70;92.20
22544;DHT22;11438;52.044;8.716;2022-11-03T09:56:04;15.80;92.20
22544;DHT22;11438;52.044;8.716;2022-11-03T09:58:32;15.90;92.20
22544;DHT22;11438;52.044;8.716;2022-11-03T10:00:59;15.90;91.90
22544;DHT22;11438;52.044;8.716;2022-11-03T10:03:25;16.00;91.90
22544;DHT22;11438;52.044;8.716;2022-11-03T10:05:50;16.10;91.80
22544;DHT22;11438;52.044;8.716;2022-11-03T10:08:30;16.10;91.80
22544;DHT22;11438;52.044;8.716;2022-11-03T10:10:57;16.10;91.70
22544;DHT22;11438;52.044;8.716;2022-11-03T10:13:34;16.20;91.70
22544;DHT22;11438;52.044;8.716;2022-11-03T10:16:06;16.30;91.70
22544;DHT22;11438;52.044;8.716;2022-11-03T10:18:33;16.30;91.60
22544;DHT22;11438;52.044;8.716;2022-11-03T10:21:05;16.40;91.40
22544;DHT22;11438;52.044;8.716;2022-11-03T10:23:31;16.40;91.50
22544;DHT22;11438;52.044;8.716;2022-11-03T10:26:17;16.40;91.50
22544;DHT22;11438;52.044;8.716;2022-11-03T10:31:37;16.50;91.60
22544;DHT22;11438;52.044;8.716;2022-11-03T10:34:04;16.60;91.50
22544;DHT22;11438;52.044;8.716;2022-11-03T10:36:31;16.60;91.60
22544;DHT22;11438;52.044;8.716;2022-11-03T10:38:57;16.70;91.60
22544;DHT22;11438;52.044;8.716;2022-11-03T10:41:25;16.70;91.60
22544;DHT22;11438;52.044;8.716;2022-11-03T10:44:18;16.70;91.50
22544;DHT22;11438;52.044;8.716;2022-11-03T10:49:23;16.80;91.40
22544;DHT22;11438;52.044;8.716;2022-11-03T10:51:51;16.90;91.50
22544;DHT22;11438;52.044;8.716;2022-11-03T10:54:19;16.90;91.50
22544;DHT22;11438;52.044;8.716;2022-11-03T10:56:46;16.90;91.30
22544;DHT22;11438;52.044;8.716;2022-11-03T10:59:24;17.00;91.30
22544;DHT22;11438;52.044;8.716;2022-11-03T11:01:51;17.00;91.30
22544;DHT22;11438;52.044;8.716;2022-11-03T11:04:18;17.10;91.40
22544;DHT22;11438;52.044;8.716;2022-11-03T11:06:44;17.10;91.40
22544;DHT22;11438;52.044;8.716;2022-11-03T11:09:14;17.10;91.40
22544;DHT22;11438;52.044;8.716;2022-11-03T11:12:01;17.10;91.40
22544;DHT22;11438;52.044;8.716;2022-11-03T11:19:19;17.20;91.40
22544;DHT22;11438;52.044;8.716;2022-11-03T11:24:12;17.30;91.30
22544;DHT22;11438;52.044;8.716;2022-11-03T11:26:38;17.30;91.20
22544;DHT22;11438;52.044;8.716;2022-11-03T11:36:34;17.50;91.10
22544;DHT22;11438;52.044;8.716;2022-11-03T11:39:01;17.50;91.10
22544;DHT22;11438;52.044;8.716;2022-11-03T11:47:25;17.60;90.90
22544;DHT22;11438;52.044;8.716;2022-11-03T11:52:37;17.60;90.90
22544;DHT22;11438;52.044;8.716;2022-11-03T11:55:05;17.60;90.90
22544;DHT22;11438;52.044;8.716;2022-11-03T11:57:33;17.50;90.70
22544;DHT22;11438;52.044;8.716;2022-11-03T11:59:59;17.60;90.70
22544;DHT22;11438;52.044;8.716;2022-11-03T12:02:29;17.60;90.60
22544;DHT22;11438;52.044;8.716;2022-11-03T12:04:59;17.60;90.60
22544;DHT22;11438;52.044;8.716;2022-11-03T12:07:32;17.60;90.60
22544;DHT22;11438;52.044;8.716;2022-11-03T12:10:10;17.60;90.60
22544;DHT22;11438;52.044;8.716;2022-11-03T12:12:37;17.60;90.50
22544;DHT22;11438;52.044;8.716;2022-11-03T12:15:03;17.50;90.30
22544;DHT22;11438;52.044;8.716;2022-11-03T12:19:54;17.60;90.40
